createdAt,value
2019-01-08T00:01:40.692Z,101459.23
2019-01-08T00:04:07.934Z,101446.81
2019-01-08T00:06:35.180Z,101443.30
2019-01-08T00:09:02.839Z,101444.01
2019-01-08T00:11:30.078Z,101443.62
2019-01-08T00:13:57.275Z,101434.32
2019-01-08T00:16:24.515Z,101431.85
2019-01-08T00:18:51.772Z,101428.60
2019-01-08T00:21:19.024Z,101425.09
2019-01-08T00:23:46.262Z,101423.86
2019-01-08T00:26:13.595Z,101422.55
2019-01-08T00:28:43.369Z,101413.34
2019-01-08T00:31:09.968Z,101414.92
2019-01-08T00:33:37.320Z,101410.22
2019-01-08T00:36:04.593Z,101410.96
2019-01-08T00:38:31.810Z,101401.34
2019-01-08T00:40:59.065Z,101398.78
2019-01-08T00:43:26.284Z,101396.64
2019-01-08T00:45:53.567Z,101383.95
2019-01-08T00:48:20.811Z,101383.95
2019-01-08T00:50:48.012Z,101372.28
2019-01-08T00:53:15.278Z,101373.08
2019-01-08T00:55:42.535Z,101369.75
2019-01-08T00:58:09.759Z,101357.52
2019-01-08T01:00:37.016Z,101360.29
2019-01-08T01:03:04.276Z,101350.64
2019-01-08T01:05:31.483Z,101361.41
2019-01-08T01:07:58.691Z,101365.29
2019-01-08T01:10:25.956Z,101368.66
2019-01-08T01:12:53.186Z,101363.41
2019-01-08T01:15:20.419Z,101366.25
2019-01-08T01:17:47.663Z,101339.61
2019-01-08T01:20:14.919Z,101334.61
2019-01-08T01:22:42.165Z,101335.87
2019-01-08T01:25:09.682Z,101335.12
2019-01-08T01:27:36.943Z,101334.48
2019-01-08T01:30:04.508Z,101321.17
2019-01-08T01:32:31.731Z,101318.20
2019-01-08T01:34:59.012Z,101304.89
2019-01-08T01:37:26.212Z,101297.66
2019-01-08T01:39:53.422Z,101292.42
2019-01-08T01:42:20.680Z,101298.37
2019-01-08T01:44:47.904Z,101301.09
2019-01-08T01:47:15.135Z,101300.99
2019-01-08T01:49:42.366Z,101306.47
2019-01-08T01:52:09.605Z,101302.60
2019-01-08T01:54:36.812Z,101289.83
2019-01-08T01:57:04.072Z,101285.33
2019-01-08T01:59:31.311Z,101270.41
2019-01-08T02:01:58.527Z,101257.25
2019-01-08T02:04:25.811Z,101269.75
2019-01-08T02:06:53.060Z,101276.39
2019-01-08T02:09:20.284Z,101265.77
2019-01-08T02:11:47.530Z,101281.88
2019-01-08T02:14:14.798Z,101276.91
2019-01-08T02:16:42.012Z,101285.80
2019-01-08T02:19:09.242Z,101273.36
2019-01-08T02:21:36.492Z,101271.72
2019-01-08T02:24:03.724Z,101265.88
2019-01-08T02:26:30.945Z,101253.23
2019-01-08T02:28:58.276Z,101278.69
2019-01-08T02:31:25.492Z,101270.17
2019-01-08T02:33:52.923Z,101274.80
2019-01-08T02:36:20.161Z,101257.11
2019-01-08T02:38:47.386Z,101254.48
2019-01-08T02:41:14.746Z,101254.41
2019-01-08T02:43:41.986Z,101231.05
2019-01-08T02:46:09.362Z,101236.06
2019-01-08T02:48:36.638Z,101234.14
2019-01-08T02:51:03.899Z,101232.13
2019-01-08T02:53:31.136Z,101228.05
2019-01-08T02:55:58.396Z,101230.82
2019-01-08T02:58:25.623Z,101229.18
2019-01-08T03:00:52.835Z,101219.20
2019-01-08T03:03:20.064Z,101211.07
2019-01-08T03:05:47.291Z,101209.48
2019-01-08T03:08:14.513Z,101202.78
2019-01-08T03:10:41.788Z,101205.17
2019-01-08T03:13:09.013Z,101201.30
2019-01-08T03:15:36.208Z,101193.99
2019-01-08T03:18:03.465Z,101202.88
2019-01-08T03:20:30.673Z,101199.98
2019-01-08T03:22:58.007Z,101186.33
2019-01-08T03:25:25.265Z,101194.79
2019-01-08T03:27:52.517Z,101181.50
2019-01-08T03:30:19.779Z,101185.29
2019-01-08T03:32:47.030Z,101178.93
2019-01-08T03:35:14.256Z,101177.76
2019-01-08T03:37:41.513Z,101184.50
2019-01-08T03:40:08.767Z,101164.66
2019-01-08T03:42:35.987Z,101170.79
2019-01-08T03:45:03.368Z,101169.05
2019-01-08T03:47:30.577Z,101164.47
2019-01-08T03:49:57.805Z,101163.16
2019-01-08T03:52:25.088Z,101146.98
2019-01-08T03:54:52.309Z,101146.83
2019-01-08T03:57:19.510Z,101152.45
2019-01-08T03:59:46.764Z,101136.34
2019-01-08T04:02:14.017Z,101122.41
2019-01-08T04:04:41.252Z,101124.55
2019-01-08T04:07:08.466Z,101119.89
2019-01-08T04:09:35.800Z,101096.73
2019-01-08T04:12:03.073Z,101113.29
2019-01-08T04:14:30.285Z,101103.14
2019-01-08T04:16:57.500Z,101094.12
2019-01-08T04:19:24.755Z,101100.66
2019-01-08T04:21:51.966Z,101083.83
2019-01-08T04:24:19.217Z,101093.61
2019-01-08T04:26:46.496Z,101069.14
2019-01-08T04:29:13.714Z,101082.61
2019-01-08T04:31:40.981Z,101075.00
2019-01-08T04:34:08.227Z,101089.34
2019-01-08T04:36:35.449Z,101071.84
2019-01-08T04:39:03.902Z,101074.22
2019-01-08T04:41:31.155Z,101079.04
2019-01-08T04:43:58.378Z,101062.12
2019-01-08T04:46:25.616Z,101037.02
2019-01-08T04:48:53.008Z,101058.30
2019-01-08T04:51:20.304Z,101050.53
2019-01-08T04:53:47.511Z,101050.95
2019-01-08T04:56:14.750Z,101048.20
2019-01-08T04:58:42.043Z,101058.25
2019-01-08T05:01:09.267Z,101030.75
2019-01-08T05:03:36.460Z,101026.69
2019-01-08T05:06:03.706Z,101027.16
2019-01-08T05:08:30.924Z,101027.99
2019-01-08T05:10:58.174Z,101017.70
2019-01-08T05:13:25.422Z,101019.77
2019-01-08T05:15:52.624Z,101007.86
2019-01-08T05:18:19.907Z,101030.13
2019-01-08T05:20:47.130Z,101003.84
2019-01-08T05:23:14.427Z,101017.15
2019-01-08T05:25:41.672Z,101011.52
2019-01-08T05:28:08.889Z,101001.02
2019-01-08T05:30:36.079Z,101012.86
2019-01-08T05:33:03.375Z,101012.66
2019-01-08T05:35:30.592Z,101005.00
2019-01-08T05:37:57.821Z,100995.66
2019-01-08T05:40:25.062Z,100994.88
2019-01-08T05:42:52.276Z,101000.05
2019-01-08T05:45:19.513Z,100991.52
2019-01-08T05:47:46.733Z,100993.22
2019-01-08T05:50:13.945Z,100990.13
2019-01-08T05:52:41.233Z,101010.86
2019-01-08T05:55:08.478Z,100990.24
2019-01-08T05:57:35.690Z,100997.30
2019-01-08T06:00:03.266Z,101003.28
2019-01-08T06:02:30.538Z,100981.05
2019-01-08T06:04:57.762Z,100987.09
2019-01-08T06:07:25.060Z,100985.54
2019-01-08T06:09:52.332Z,100993.40
2019-01-08T06:12:19.652Z,100974.48
2019-01-08T06:14:46.875Z,100978.41
2019-01-08T06:17:14.181Z,100989.49
2019-01-08T06:19:41.725Z,100966.91
2019-01-08T06:22:08.955Z,100979.53
2019-01-08T06:24:36.178Z,100973.78
2019-01-08T06:27:03.431Z,100985.81
2019-01-08T06:29:30.659Z,100963.09
2019-01-08T06:31:57.893Z,100975.25
2019-01-08T06:34:25.182Z,100984.97
2019-01-08T06:36:52.417Z,100957.44
2019-01-08T06:39:19.677Z,100980.48
2019-01-08T06:41:46.882Z,100986.28
2019-01-08T06:44:14.115Z,100966.59
2019-01-08T06:46:43.147Z,100970.25
2019-01-08T06:49:10.520Z,100979.58
2019-01-08T06:51:37.863Z,100967.24
2019-01-08T06:54:05.140Z,100954.35
2019-01-08T06:56:32.352Z,100927.98
2019-01-08T06:58:59.651Z,100958.19
2019-01-08T07:01:29.413Z,100961.37
2019-01-08T07:03:56.618Z,100955.05
2019-01-08T07:06:23.859Z,100954.08
2019-01-08T07:08:51.075Z,100963.70
2019-01-08T07:11:18.394Z,100966.88
2019-01-08T07:13:45.634Z,100943.63
2019-01-08T07:16:12.839Z,100967.05
2019-01-08T07:18:40.180Z,100960.39
2019-01-08T07:21:07.395Z,100969.55
2019-01-08T07:23:34.648Z,100962.39
2019-01-08T07:26:01.887Z,100969.72
2019-01-08T07:28:29.412Z,100960.69
2019-01-08T07:30:56.875Z,100972.47
2019-01-08T07:33:24.087Z,100978.96
2019-01-08T07:35:51.319Z,100974.90
2019-01-08T07:38:18.583Z,100961.22
2019-01-08T07:40:45.800Z,100975.81
2019-01-08T07:43:13.069Z,100973.75
2019-01-08T07:45:40.328Z,100996.77
2019-01-08T07:48:07.545Z,100988.52
2019-01-08T07:50:34.820Z,100995.88
2019-01-08T07:53:02.055Z,100990.22
2019-01-08T07:55:29.298Z,100979.83
2019-01-08T07:57:56.547Z,100974.51
2019-01-08T08:00:23.741Z,100991.53
2019-01-08T08:02:51.063Z,100987.97
2019-01-08T08:05:18.318Z,100992.03
2019-01-08T08:07:45.559Z,100982.17
2019-01-08T08:10:13.319Z,100969.27
2019-01-08T08:12:40.539Z,100977.22
2019-01-08T08:15:07.991Z,100987.27
2019-01-08T08:17:35.265Z,100977.30
2019-01-08T08:20:03.862Z,100974.31
2019-01-08T08:22:31.097Z,100976.59
2019-01-08T08:24:58.339Z,100958.82
2019-01-08T08:27:25.624Z,100978.96
2019-01-08T08:29:52.867Z,100984.34
2019-01-08T08:32:20.142Z,100973.30
2019-01-08T08:34:47.439Z,100980.94
2019-01-08T08:37:14.702Z,100992.61
2019-01-08T08:39:41.910Z,100992.39
2019-01-08T08:42:10.335Z,101006.23
2019-01-08T08:44:37.577Z,100998.38
2019-01-08T08:47:04.796Z,101005.76
2019-01-08T08:49:32.019Z,101003.49
2019-01-08T08:51:59.259Z,101003.70
2019-01-08T08:54:26.524Z,101012.66
2019-01-08T08:56:53.757Z,101026.27
2019-01-08T08:59:20.995Z,101024.06
2019-01-08T09:01:48.230Z,101020.89
2019-01-08T09:04:15.488Z,101019.36
2019-01-08T09:06:42.724Z,101023.59
2019-01-08T09:09:10.044Z,101039.63
2019-01-08T09:11:37.300Z,101032.30
2019-01-08T09:14:04.517Z,101025.42
2019-01-08T09:16:31.719Z,101043.14
2019-01-08T09:18:59.125Z,101049.51
2019-01-08T09:21:26.382Z,101053.63
2019-01-08T09:23:53.680Z,101062.35
2019-01-08T09:26:20.917Z,101044.83
2019-01-08T09:28:48.172Z,101071.98
2019-01-08T09:31:15.854Z,101070.77
2019-01-08T09:33:43.116Z,101077.83
2019-01-08T09:36:10.379Z,101099.84
2019-01-08T09:38:37.629Z,101082.31
2019-01-08T09:41:04.954Z,101073.47
2019-01-08T09:43:32.208Z,101070.98
2019-01-08T09:45:59.423Z,101100.35
2019-01-08T09:48:26.707Z,101095.67
2019-01-08T09:50:53.955Z,101107.18
2019-01-08T09:53:21.172Z,101109.75
2019-01-08T09:55:48.396Z,101110.16
2019-01-08T09:58:15.662Z,101115.41
2019-01-08T10:00:42.890Z,101108.52
2019-01-08T10:03:10.206Z,101100.97
2019-01-08T10:05:37.454Z,101116.33
2019-01-08T10:08:04.672Z,101113.85
2019-01-08T10:10:31.925Z,101124.33
2019-01-08T10:12:59.223Z,101115.72
2019-01-08T10:15:26.519Z,101127.00
2019-01-08T10:17:53.744Z,101117.36
2019-01-08T10:20:20.987Z,101143.03
2019-01-08T10:22:48.348Z,101126.48
2019-01-08T10:25:15.582Z,101125.50
2019-01-08T10:27:42.843Z,101121.77
2019-01-08T10:30:10.247Z,101120.54
2019-01-08T10:32:37.454Z,101121.73
2019-01-08T10:35:05.081Z,101123.99
2019-01-08T10:37:32.424Z,101143.31
2019-01-08T10:40:01.506Z,101124.19
2019-01-08T10:42:28.807Z,101125.72
2019-01-08T10:44:56.099Z,101140.78
2019-01-08T10:47:23.318Z,101128.20
2019-01-08T10:49:50.565Z,101136.06
2019-01-08T10:52:18.037Z,101123.86
2019-01-08T10:54:45.334Z,101147.94
2019-01-08T10:57:12.587Z,101160.85
2019-01-08T10:59:39.985Z,101154.04
2019-01-08T11:02:07.253Z,101146.84
2019-01-08T11:04:34.571Z,101141.65
2019-01-08T11:07:01.792Z,101137.53
2019-01-08T11:09:29.269Z,101143.33
2019-01-08T11:11:56.836Z,101155.02
2019-01-08T11:14:24.076Z,101143.28
2019-01-08T11:16:53.366Z,101149.92
2019-01-08T11:19:20.793Z,101129.23
2019-01-08T11:21:48.276Z,101133.31
2019-01-08T11:24:15.559Z,101145.24
2019-01-08T11:26:42.834Z,101146.91
2019-01-08T11:29:10.019Z,101149.92
2019-01-08T11:31:37.269Z,101143.66
2019-01-08T11:34:04.493Z,101144.69
2019-01-08T11:36:31.720Z,101157.70
2019-01-08T11:38:58.974Z,101155.83
2019-01-08T11:41:26.212Z,101147.45
2019-01-08T11:43:53.415Z,101165.50
2019-01-08T11:46:20.676Z,101152.40
2019-01-08T11:48:47.905Z,101153.53
2019-01-08T11:51:15.280Z,101146.88
2019-01-08T11:53:42.555Z,101162.16
2019-01-08T11:56:09.756Z,101165.73
2019-01-08T11:58:37.017Z,101140.69
2019-01-08T12:01:04.241Z,101137.96
2019-01-08T12:03:31.496Z,101130.99
2019-01-08T12:05:58.713Z,101136.77
2019-01-08T12:08:25.939Z,101145.13
2019-01-08T12:10:53.348Z,101134.37
2019-01-08T12:13:20.541Z,101145.37
2019-01-08T12:15:47.976Z,101140.13
2019-01-08T12:18:16.246Z,101134.65
2019-01-08T12:20:43.562Z,101143.62
2019-01-08T12:23:10.882Z,101138.14
2019-01-08T12:25:38.176Z,101132.44
2019-01-08T12:28:05.444Z,101147.03
2019-01-08T12:30:32.746Z,101151.61
2019-01-08T12:32:59.971Z,101152.83
2019-01-08T12:35:27.224Z,101157.93
2019-01-08T12:37:54.524Z,101154.47
2019-01-08T12:40:21.773Z,101155.68
2019-01-08T12:42:49.201Z,101161.81
2019-01-08T12:45:16.430Z,101156.33
2019-01-08T12:47:43.919Z,101150.81
2019-01-08T12:50:11.179Z,101147.30
2019-01-08T12:52:38.457Z,101159.64
2019-01-08T12:55:05.751Z,101156.75
2019-01-08T12:57:33.101Z,101159.55
2019-01-08T13:00:00.353Z,101159.55
2019-01-08T13:02:27.731Z,101160.95
2019-01-08T13:04:54.998Z,101157.45
2019-01-08T13:07:22.295Z,101176.27
2019-01-08T13:09:49.555Z,101170.27
2019-01-08T13:12:16.780Z,101163.02
2019-01-08T13:14:44.032Z,101172.09
2019-01-08T13:17:11.879Z,101166.62
2019-01-08T13:19:39.462Z,101165.87
2019-01-08T13:22:06.817Z,101164.98
2019-01-08T13:24:34.062Z,101163.30
2019-01-08T13:27:01.381Z,101155.07
2019-01-08T13:29:28.664Z,101174.15
2019-01-08T13:31:55.887Z,101170.55
2019-01-08T13:34:23.192Z,101172.56
2019-01-08T13:36:50.415Z,101177.70
2019-01-08T13:39:17.649Z,101168.45
2019-01-08T13:41:44.924Z,101175.94
2019-01-08T13:44:13.832Z,101181.23
2019-01-08T13:46:41.140Z,101202.61
2019-01-08T13:49:10.958Z,101168.36
2019-01-08T13:51:38.313Z,101187.97
2019-01-08T13:54:05.527Z,101190.34
2019-01-08T13:56:32.756Z,101196.19
2019-01-08T13:59:05.193Z,101188.33
2019-01-08T14:01:32.412Z,101185.85
2019-01-08T14:03:59.652Z,101178.37
2019-01-08T14:06:26.891Z,101187.95
2019-01-08T14:08:54.124Z,101207.42
2019-01-08T14:11:21.345Z,101198.48
2019-01-08T14:13:48.875Z,101207.70
2019-01-08T14:16:16.163Z,101194.52
2019-01-08T14:18:43.427Z,101208.45
2019-01-08T14:21:10.727Z,101213.45
2019-01-08T14:23:38.025Z,101215.66
2019-01-08T14:26:05.298Z,101203.39
2019-01-08T14:28:32.559Z,101201.43
2019-01-08T14:31:00.110Z,101220.33
2019-01-08T14:33:27.327Z,101217.98
2019-01-08T14:35:54.562Z,101215.92
2019-01-08T14:38:21.811Z,101233.87
2019-01-08T14:40:49.178Z,101211.84
2019-01-08T14:43:16.394Z,101208.99
2019-01-08T14:45:43.633Z,101216.94
2019-01-08T14:48:10.892Z,101210.45
2019-01-08T14:50:38.255Z,101229.85
2019-01-08T14:53:05.463Z,101243.52
2019-01-08T14:55:32.691Z,101256.97
2019-01-08T14:57:59.939Z,101224.55
2019-01-08T15:00:27.171Z,101244.52
2019-01-08T15:02:54.418Z,101254.16
2019-01-08T15:05:21.782Z,101259.49
2019-01-08T15:07:49.040Z,101257.59
2019-01-08T15:10:16.367Z,101247.56
2019-01-08T15:12:43.686Z,101258.75
2019-01-08T15:15:12.853Z,101265.80
2019-01-08T15:17:40.157Z,101281.20
2019-01-08T15:20:07.524Z,101270.39
2019-01-08T15:22:34.765Z,101281.55
2019-01-08T15:25:02.061Z,101271.36
2019-01-08T15:27:29.424Z,101275.92
2019-01-08T15:29:56.660Z,101291.50
2019-01-08T15:32:23.944Z,101283.66
2019-01-08T15:34:51.185Z,101283.33
2019-01-08T15:37:18.492Z,101314.65
2019-01-08T15:39:45.788Z,101298.38
2019-01-08T15:42:13.076Z,101304.45
2019-01-08T15:44:40.323Z,101295.43
2019-01-08T15:47:07.901Z,101299.45
2019-01-08T15:49:35.114Z,101323.28
2019-01-08T15:52:02.526Z,101317.98
2019-01-08T15:54:29.882Z,101326.15
2019-01-08T15:56:57.308Z,101335.15
2019-01-08T15:59:24.593Z,101326.57
2019-01-08T16:01:51.810Z,101340.07
2019-01-08T16:04:19.066Z,101329.86
2019-01-08T16:06:46.381Z,101335.98
2019-01-08T16:09:13.589Z,101330.28
2019-01-08T16:11:40.856Z,101326.83
2019-01-08T16:14:08.112Z,101347.03
2019-01-08T16:16:35.345Z,101331.75
2019-01-08T16:19:02.722Z,101355.71
2019-01-08T16:21:29.950Z,101346.30
2019-01-08T16:23:57.157Z,101347.66
2019-01-08T16:26:24.472Z,101349.01
2019-01-08T16:28:51.781Z,101360.20
2019-01-08T16:31:19.457Z,101348.12
2019-01-08T16:33:46.680Z,101361.84
2019-01-08T16:36:13.956Z,101362.36
2019-01-08T16:38:41.167Z,101364.14
2019-01-08T16:41:08.377Z,101369.05
2019-01-08T16:43:35.626Z,101378.53
2019-01-08T16:46:02.858Z,101373.20
2019-01-08T16:48:30.077Z,101369.59
2019-01-08T16:50:57.367Z,101357.08
2019-01-08T16:53:24.631Z,101362.31
2019-01-08T16:55:51.871Z,101360.05
2019-01-08T16:58:19.137Z,101365.77
2019-01-08T17:00:46.603Z,101358.91
2019-01-08T17:03:13.991Z,101364.04
2019-01-08T17:05:43.630Z,101368.06
2019-01-08T17:08:10.852Z,101373.30
2019-01-08T17:10:38.141Z,101381.94
2019-01-08T17:13:06.730Z,101383.55
2019-01-08T17:15:34.071Z,101374.23
2019-01-08T17:18:01.356Z,101387.62
2019-01-08T17:20:28.595Z,101378.63
2019-01-08T17:22:56.028Z,101381.49
2019-01-08T17:25:23.359Z,101372.48
2019-01-08T17:27:50.656Z,101371.23
2019-01-08T17:30:20.162Z,101372.39
2019-01-08T17:32:47.495Z,101376.26
2019-01-08T17:35:14.906Z,101389.60
2019-01-08T17:37:42.240Z,101362.87
2019-01-08T17:40:09.522Z,101389.25
2019-01-08T17:42:36.990Z,101380.84
2019-01-08T17:45:05.526Z,101371.50
2019-01-08T17:47:33.042Z,101378.83
2019-01-08T17:50:00.294Z,101376.22
2019-01-08T17:52:27.845Z,101384.26
2019-01-08T17:54:55.057Z,101396.64
2019-01-08T17:57:22.495Z,101398.23
2019-01-08T17:59:49.839Z,101385.63
2019-01-08T18:02:18.434Z,101409.22
2019-01-08T18:04:45.726Z,101406.05
2019-01-08T18:07:12.945Z,101416.59
2019-01-08T18:09:40.187Z,101426.74
2019-01-08T18:12:07.395Z,101421.66
2019-01-08T18:14:35.704Z,101425.81
2019-01-08T18:17:03.514Z,101427.30
2019-01-08T18:19:31.062Z,101429.50
2019-01-08T18:21:58.539Z,101430.35
2019-01-08T18:24:25.895Z,101427.87
2019-01-08T18:26:53.067Z,101435.09
2019-01-08T18:29:20.718Z,101428.33
2019-01-08T18:31:48.181Z,101437.48
2019-01-08T18:34:15.458Z,101463.48
2019-01-08T18:36:42.695Z,101450.52
2019-01-08T18:39:09.920Z,101449.95
2019-01-08T18:41:37.211Z,101442.22
2019-01-08T18:44:04.434Z,101461.55
2019-01-08T18:46:31.851Z,101473.53
2019-01-08T18:48:59.661Z,101460.63
2019-01-08T18:51:26.877Z,101463.44
2019-01-08T18:53:55.238Z,101446.14
2019-01-08T18:56:22.470Z,101447.73
2019-01-08T18:58:49.908Z,101460.61
2019-01-08T19:01:17.252Z,101458.28
2019-01-08T19:03:44.480Z,101447.33
2019-01-08T19:06:11.675Z,101452.66
2019-01-08T19:09:15.065Z,101448.78
2019-01-08T19:11:42.280Z,101457.48
2019-01-08T19:14:10.088Z,101451.41
2019-01-08T19:16:37.323Z,101458.32
2019-01-08T19:19:04.530Z,101457.39
2019-01-08T19:21:31.892Z,101468.85
2019-01-08T19:23:59.167Z,101466.55
2019-01-08T19:26:26.649Z,101476.39
2019-01-08T19:28:54.118Z,101480.00
2019-01-08T19:31:21.363Z,101517.66
2019-01-08T19:33:48.573Z,101506.77
2019-01-08T19:36:15.916Z,101506.38
2019-01-08T19:38:43.209Z,101504.88
2019-01-08T19:41:10.930Z,101509.09
2019-01-08T19:43:38.244Z,101503.47
2019-01-08T19:46:05.483Z,101495.44
2019-01-08T19:48:32.752Z,101497.04
2019-01-08T19:50:59.980Z,101509.45
2019-01-08T19:53:27.255Z,101517.06
2019-01-08T19:55:54.512Z,101514.69
2019-01-08T19:58:21.812Z,101476.09
2019-01-08T20:00:49.109Z,101508.87
2019-01-08T20:03:16.376Z,101519.78
2019-01-08T20:05:43.596Z,101520.67
2019-01-08T20:08:11.068Z,101512.64
2019-01-08T20:10:38.261Z,101522.14
2019-01-08T20:13:05.553Z,101520.31
2019-01-08T20:15:32.820Z,101518.11
2019-01-08T20:18:00.043Z,101519.98
2019-01-08T20:20:27.395Z,101541.44
2019-01-08T20:22:54.656Z,101501.89
2019-01-08T20:25:21.881Z,101516.31
2019-01-08T20:27:50.140Z,101523.63
2019-01-08T20:30:17.558Z,101523.52
2019-01-08T20:32:44.910Z,101522.72
2019-01-08T20:35:12.130Z,101518.41
2019-01-08T20:37:39.862Z,101526.55
2019-01-08T20:40:07.189Z,101516.15
2019-01-08T20:42:34.402Z,101506.59
2019-01-08T20:45:01.696Z,101504.56
2019-01-08T20:47:28.900Z,101502.86
2019-01-08T20:49:56.116Z,101520.55
2019-01-08T20:52:23.438Z,101512.23
2019-01-08T20:54:50.638Z,101510.86
2019-01-08T20:57:17.879Z,101514.86
2019-01-08T20:59:45.124Z,101525.46
2019-01-08T21:02:12.375Z,101522.91
2019-01-08T21:04:39.600Z,101540.95
2019-01-08T21:07:06.847Z,101535.68
2019-01-08T21:09:34.063Z,101521.78
2019-01-08T21:12:01.335Z,101529.74
2019-01-08T21:14:28.621Z,101519.73
2019-01-08T21:16:55.851Z,101520.33
2019-01-08T21:19:23.068Z,101530.77
2019-01-08T21:21:50.348Z,101533.98
2019-01-08T21:24:17.603Z,101511.17
2019-01-08T21:26:44.815Z,101547.51
2019-01-08T21:29:12.162Z,101536.41
2019-01-08T21:31:39.484Z,101527.67
2019-01-08T21:34:06.707Z,101528.38
2019-01-08T21:36:33.958Z,101519.23
2019-01-08T21:39:01.176Z,101507.96
2019-01-08T21:41:28.412Z,101506.23
2019-01-08T21:43:55.644Z,101506.06
2019-01-08T21:46:22.866Z,101515.59
2019-01-08T21:48:50.292Z,101511.75
2019-01-08T21:51:17.593Z,101526.00
2019-01-08T21:53:44.811Z,101535.66
2019-01-08T21:56:12.058Z,101511.43
2019-01-08T21:58:39.275Z,101514.05
2019-01-08T22:01:06.510Z,101514.42
2019-01-08T22:03:33.903Z,101521.95
2019-01-08T22:06:01.189Z,101530.49
2019-01-08T22:08:28.595Z,101535.31
2019-01-08T22:10:55.824Z,101510.89
2019-01-08T22:13:23.017Z,101526.98
2019-01-08T22:15:50.277Z,101528.00
2019-01-08T22:18:17.880Z,101520.04
2019-01-08T22:20:45.076Z,101527.77
2019-01-08T22:23:12.322Z,101527.77
2019-01-08T22:25:39.559Z,101524.06
2019-01-08T22:28:06.796Z,101504.05
2019-01-08T22:30:34.069Z,101520.91
2019-01-08T22:33:02.454Z,101535.05
2019-01-08T22:35:29.707Z,101527.67
2019-01-08T22:37:56.935Z,101528.34
2019-01-08T22:40:24.178Z,101526.10
2019-01-08T22:42:51.573Z,101537.67
2019-01-08T22:45:19.044Z,101516.67
2019-01-08T22:47:46.323Z,101520.00
2019-01-08T22:50:13.902Z,101512.75
2019-01-08T22:52:59.548Z,101510.98
2019-01-08T22:55:38.229Z,101515.63
2019-01-08T22:58:21.753Z,101499.05
2019-01-08T23:04:21.707Z,101508.15
2019-01-08T23:06:49.401Z,101496.26
2019-01-08T23:09:17.164Z,101507.06
2019-01-08T23:11:44.789Z,101497.89
2019-01-08T23:14:12.369Z,101533.36
2019-01-08T23:16:39.956Z,101546.55
2019-01-08T23:19:07.870Z,101540.20
2019-01-08T23:21:35.442Z,101518.83
2019-01-08T23:24:02.698Z,101512.83
2019-01-08T23:26:29.926Z,101507.27
2019-01-08T23:28:57.153Z,101520.03
2019-01-08T23:31:24.463Z,101517.81
2019-01-08T23:33:51.732Z,101516.77
2019-01-08T23:36:18.954Z,101521.61
2019-01-08T23:38:46.329Z,101536.94
2019-01-08T23:41:13.632Z,101549.92
2019-01-08T23:43:40.897Z,101535.39
2019-01-08T23:46:08.105Z,101536.00
2019-01-08T23:48:35.318Z,101537.04
2019-01-08T23:51:02.570Z,101536.44
2019-01-08T23:53:31.971Z,101542.16
2019-01-08T23:56:02.485Z,101542.36
2019-01-08T23:58:29.709Z,101537.44
